RYR126 EDDV-EDDH
Flight info
| Callsign | RYR126 |
|---|---|
| Flight time | 0h 27m |
| Altitude | 23000 |
| Route | CEL8F CEL Q282 DIRBO T902 RARUP RARUP3P |
| Aircraft | B38M/M-SDE1FGHILORVWXY/HB1 |
Departure
| Time | 2026-04-24 20:59 |
|---|---|
| Airport | Hannover Airport (EDDV) |
Arrival
| Time | 2026-04-24 21:27 |
|---|---|
| Airport | Hamburg Helmut Schmidt Airport (EDDH) |
| Time | Latitude | Longitude | Altitude | Speed | Heading |
|---|---|---|---|---|---|
| 2026-04-24 20:31 | 52.45956 | 9.69301 | 181 ft | 0 kts | 99° |
| 2026-04-24 20:45 | 52.45957 | 9.69288 | 181 ft | 2 kts | 88° |
| 2026-04-24 20:46 | 52.45953 | 9.69263 | 181 ft | 2 kts | 59° |
| 2026-04-24 20:46 | 52.45945 | 9.69239 | 181 ft | 2 kts | 92° |
| 2026-04-24 20:46 | 52.45949 | 9.69213 | 181 ft | 2 kts | 115° |
| 2026-04-24 20:46 | 52.45957 | 9.69189 | 181 ft | 2 kts | 124° |
| 2026-04-24 20:47 | 52.45967 | 9.69168 | 181 ft | 2 kts | 133° |
| 2026-04-24 20:47 | 52.45980 | 9.69150 | 181 ft | 2 kts | 148° |
| 2026-04-24 20:47 | 52.45990 | 9.69142 | 181 ft | 1 kts | 177° |
| 2026-04-24 20:47 | 52.45991 | 9.69142 | 181 ft | 0 kts | 184° |
| 2026-04-24 20:51 | 52.45974 | 9.69142 | 181 ft | 5 kts | 176° |
| 2026-04-24 20:52 | 52.45926 | 9.69151 | 181 ft | 8 kts | 175° |
| 2026-04-24 20:52 | 52.45871 | 9.69148 | 181 ft | 6 kts | 175° |
| 2026-04-24 20:52 | 52.45815 | 9.69185 | 181 ft | 12 kts | 152° |
| 2026-04-24 20:52 | 52.45725 | 9.69157 | 181 ft | 15 kts | 207° |
| 2026-04-24 20:53 | 52.45628 | 9.69184 | 181 ft | 16 kts | 122° |
| 2026-04-24 20:53 | 52.45615 | 9.69369 | 181 ft | 18 kts | 91° |
| 2026-04-24 20:53 | 52.45610 | 9.69596 | 181 ft | 22 kts | 94° |
| 2026-04-24 20:53 | 52.45602 | 9.69855 | 181 ft | 24 kts | 93° |
| 2026-04-24 20:54 | 52.45593 | 9.70135 | 181 ft | 26 kts | 92° |
| 2026-04-24 20:54 | 52.45586 | 9.70434 | 181 ft | 27 kts | 93° |
| 2026-04-24 20:54 | 52.45579 | 9.70753 | 181 ft | 27 kts | 93° |
| 2026-04-24 20:54 | 52.45571 | 9.70961 | 181 ft | 14 kts | 94° |
| 2026-04-24 20:55 | 52.45538 | 9.71076 | 181 ft | 8 kts | 139° |
| 2026-04-24 20:55 | 52.45497 | 9.71101 | 182 ft | 7 kts | 174° |
| 2026-04-24 20:55 | 52.45449 | 9.71100 | 194 ft | 6 kts | 181° |
| 2026-04-24 20:55 | 52.45413 | 9.71088 | 187 ft | 8 kts | 216° |
| 2026-04-24 20:56 | 52.45405 | 9.71043 | 188 ft | 0 kts | 271° |
| 2026-04-24 20:59 | 52.45405 | 9.71040 | 188 ft | 6 kts | 271° |
| 2026-04-24 20:59 | 52.45420 | 9.70461 | 183 ft | 94 kts | 272° |
| 2026-04-24 20:59 | 52.45466 | 9.68976 | 204 ft | 162 kts | 273° |
| 2026-04-24 20:59 | 52.45511 | 9.67064 | 964 ft | 170 kts | 273° |
| 2026-04-24 21:00 | 52.45530 | 9.65119 | 2008 ft | 170 kts | 274° |
| 2026-04-24 21:00 | 52.45587 | 9.63169 | 2739 ft | 178 kts | 284° |
| 2026-04-24 21:00 | 52.46189 | 9.61328 | 3112 ft | 193 kts | 320° |
| 2026-04-24 21:00 | 52.47353 | 9.60190 | 3690 ft | 196 kts | 334° |
| 2026-04-24 21:01 | 52.48501 | 9.58943 | 4241 ft | 202 kts | 319° |
| 2026-04-24 21:01 | 52.49520 | 9.57279 | 4829 ft | 217 kts | 315° |
| 2026-04-24 21:01 | 52.50627 | 9.55530 | 5639 ft | 224 kts | 321° |
| 2026-04-24 21:01 | 52.51926 | 9.54098 | 6396 ft | 233 kts | 335° |
| 2026-04-24 21:02 | 52.53559 | 9.53434 | 6950 ft | 254 kts | 355° |
| 2026-04-24 21:02 | 52.55326 | 9.53972 | 7569 ft | 268 kts | 20° |
| 2026-04-24 21:02 | 52.56978 | 9.55476 | 7867 ft | 273 kts | 28° |
| 2026-04-24 21:02 | 52.58646 | 9.56936 | 8106 ft | 271 kts | 18° |
| 2026-04-24 21:03 | 52.60420 | 9.58003 | 8154 ft | 271 kts | 17° |
| 2026-04-24 21:03 | 52.62190 | 9.59079 | 8167 ft | 271 kts | 17° |
| 2026-04-24 21:03 | 52.63956 | 9.60169 | 8172 ft | 271 kts | 17° |
| 2026-04-24 21:03 | 52.65719 | 9.61271 | 8170 ft | 271 kts | 17° |
| 2026-04-24 21:04 | 52.67481 | 9.62379 | 8174 ft | 271 kts | 17° |
| 2026-04-24 21:04 | 52.69242 | 9.63492 | 8164 ft | 271 kts | 17° |
| 2026-04-24 21:04 | 52.71000 | 9.64605 | 8169 ft | 271 kts | 17° |
| 2026-04-24 21:04 | 52.72761 | 9.65723 | 8157 ft | 271 kts | 17° |
| 2026-04-24 21:05 | 52.74520 | 9.66840 | 8155 ft | 271 kts | 17° |
| 2026-04-24 21:05 | 52.76279 | 9.67958 | 8152 ft | 271 kts | 18° |
| 2026-04-24 21:05 | 52.78037 | 9.69078 | 8154 ft | 271 kts | 18° |
| 2026-04-24 21:05 | 52.79799 | 9.70201 | 8155 ft | 271 kts | 18° |
| 2026-04-24 21:06 | 52.81560 | 9.71324 | 8155 ft | 271 kts | 18° |
| 2026-04-24 21:06 | 52.83319 | 9.72446 | 8144 ft | 271 kts | 17° |
| 2026-04-24 21:06 | 52.85079 | 9.73571 | 8158 ft | 271 kts | 18° |
| 2026-04-24 21:06 | 52.86838 | 9.74694 | 8157 ft | 271 kts | 17° |
| 2026-04-24 21:07 | 52.88593 | 9.75818 | 8155 ft | 270 kts | 17° |
| 2026-04-24 21:07 | 52.90346 | 9.76941 | 8153 ft | 270 kts | 17° |
| 2026-04-24 21:07 | 52.92099 | 9.78065 | 8148 ft | 270 kts | 17° |
| 2026-04-24 21:07 | 52.93857 | 9.79193 | 8152 ft | 270 kts | 17° |
| 2026-04-24 21:08 | 52.95610 | 9.80319 | 8150 ft | 270 kts | 17° |
| 2026-04-24 21:08 | 52.97341 | 9.81431 | 8150 ft | 270 kts | 17° |
| 2026-04-24 21:08 | 52.99098 | 9.82562 | 8146 ft | 271 kts | 17° |
| 2026-04-24 21:08 | 53.00853 | 9.83692 | 8155 ft | 271 kts | 17° |
| 2026-04-24 21:09 | 53.02606 | 9.84821 | 8151 ft | 271 kts | 17° |
| 2026-04-24 21:09 | 53.04363 | 9.85955 | 8150 ft | 270 kts | 17° |
| 2026-04-24 21:09 | 53.06116 | 9.87086 | 8146 ft | 271 kts | 17° |
| 2026-04-24 21:09 | 53.07872 | 9.88220 | 8152 ft | 271 kts | 17° |
| 2026-04-24 21:10 | 53.09626 | 9.89355 | 8150 ft | 270 kts | 17° |
| 2026-04-24 21:10 | 53.11382 | 9.90491 | 8142 ft | 271 kts | 17° |
| 2026-04-24 21:10 | 53.13137 | 9.91629 | 8149 ft | 271 kts | 17° |
| 2026-04-24 21:10 | 53.14891 | 9.92767 | 8143 ft | 270 kts | 17° |
| 2026-04-24 21:11 | 53.16645 | 9.93904 | 8150 ft | 271 kts | 17° |
| 2026-04-24 21:11 | 53.18400 | 9.95044 | 8143 ft | 271 kts | 17° |
| 2026-04-24 21:11 | 53.20155 | 9.96185 | 8140 ft | 270 kts | 17° |
| 2026-04-24 21:11 | 53.21905 | 9.97349 | 8134 ft | 271 kts | 21° |
| 2026-04-24 21:12 | 53.23549 | 9.98926 | 8082 ft | 273 kts | 28° |
| 2026-04-24 21:12 | 53.24606 | 10.00073 | 7941 ft | 274 kts | 29° |
| 2026-04-24 21:12 | 53.26738 | 10.02409 | 7612 ft | 273 kts | 29° |
| 2026-04-24 21:12 | 53.28331 | 10.04151 | 7380 ft | 273 kts | 29° |
| 2026-04-24 21:13 | 53.29917 | 10.05887 | 7141 ft | 272 kts | 29° |
| 2026-04-24 21:13 | 53.31500 | 10.07618 | 6903 ft | 272 kts | 29° |
| 2026-04-24 21:13 | 53.33080 | 10.09353 | 6677 ft | 271 kts | 29° |
| 2026-04-24 21:13 | 53.34645 | 10.11081 | 6435 ft | 270 kts | 29° |
| 2026-04-24 21:14 | 53.36251 | 10.12679 | 6186 ft | 267 kts | 24° |
| 2026-04-24 21:14 | 53.37860 | 10.14134 | 5943 ft | 266 kts | 24° |
| 2026-04-24 21:14 | 53.39505 | 10.15620 | 5688 ft | 265 kts | 24° |
| 2026-04-24 21:14 | 53.41100 | 10.17063 | 5454 ft | 264 kts | 24° |
| 2026-04-24 21:15 | 53.42713 | 10.18524 | 5214 ft | 263 kts | 24° |
| 2026-04-24 21:15 | 53.44313 | 10.19981 | 5024 ft | 261 kts | 24° |
| 2026-04-24 21:15 | 53.45900 | 10.21426 | 4994 ft | 260 kts | 24° |
| 2026-04-24 21:15 | 53.47489 | 10.22874 | 5002 ft | 260 kts | 24° |
| 2026-04-24 21:16 | 53.49082 | 10.24327 | 4994 ft | 260 kts | 24° |
| 2026-04-24 21:16 | 53.50669 | 10.25780 | 4997 ft | 260 kts | 24° |
| 2026-04-24 21:16 | 53.52256 | 10.27231 | 4991 ft | 259 kts | 24° |
| 2026-04-24 21:16 | 53.53842 | 10.28680 | 4994 ft | 260 kts | 24° |
| 2026-04-24 21:17 | 53.55428 | 10.30129 | 5006 ft | 260 kts | 24° |
| 2026-04-24 21:17 | 53.57010 | 10.31583 | 4997 ft | 259 kts | 24° |
| 2026-04-24 21:17 | 53.58591 | 10.33040 | 4993 ft | 259 kts | 24° |
| 2026-04-24 21:17 | 53.59637 | 10.34001 | 4989 ft | 259 kts | 24° |
| 2026-04-24 21:18 | 53.61756 | 10.35948 | 4984 ft | 259 kts | 24° |
| 2026-04-24 21:18 | 53.63338 | 10.37411 | 4982 ft | 259 kts | 24° |
| 2026-04-24 21:18 | 53.64920 | 10.38868 | 4974 ft | 259 kts | 24° |
| 2026-04-24 21:18 | 53.66505 | 10.40321 | 4977 ft | 259 kts | 24° |
| 2026-04-24 21:19 | 53.68088 | 10.41778 | 4978 ft | 259 kts | 24° |
| 2026-04-24 21:19 | 53.69673 | 10.43240 | 4973 ft | 259 kts | 24° |
| 2026-04-24 21:19 | 53.71261 | 10.44679 | 4974 ft | 258 kts | 20° |
| 2026-04-24 21:19 | 53.72971 | 10.45249 | 4960 ft | 248 kts | 352° |
| 2026-04-24 21:20 | 53.75892 | 10.42850 | 4969 ft | 224 kts | 324° |
| 2026-04-24 21:20 | 53.77116 | 10.41367 | 4973 ft | 209 kts | 324° |
| 2026-04-24 21:20 | 53.78279 | 10.39957 | 4984 ft | 208 kts | 324° |
| 2026-04-24 21:21 | 53.79455 | 10.38473 | 4979 ft | 213 kts | 316° |
| 2026-04-24 21:21 | 53.80187 | 10.36329 | 4939 ft | 216 kts | 285° |
| 2026-04-24 21:21 | 53.80174 | 10.33840 | 4803 ft | 214 kts | 265° |
| 2026-04-24 21:21 | 53.79881 | 10.31401 | 4613 ft | 212 kts | 257° |
| 2026-04-24 21:22 | 53.79060 | 10.29295 | 4351 ft | 221 kts | 230° |
| 2026-04-24 21:22 | 53.77882 | 10.27597 | 4035 ft | 225 kts | 224° |
| 2026-04-24 21:22 | 53.76636 | 10.25984 | 3707 ft | 224 kts | 224° |
| 2026-04-24 21:22 | 53.75858 | 10.24823 | 3515 ft | 218 kts | 231° |
| 2026-04-24 21:23 | 53.74588 | 10.22346 | 3223 ft | 204 kts | 238° |
| 2026-04-24 21:23 | 53.73715 | 10.20535 | 3069 ft | 193 kts | 238° |
| 2026-04-24 21:23 | 53.72872 | 10.18802 | 2889 ft | 191 kts | 238° |
| 2026-04-24 21:23 | 53.72032 | 10.17090 | 2665 ft | 187 kts | 237° |
| 2026-04-24 21:24 | 53.71209 | 10.15408 | 2393 ft | 185 kts | 237° |
| 2026-04-24 21:24 | 53.70369 | 10.13788 | 2031 ft | 182 kts | 235° |
| 2026-04-24 21:24 | 53.69562 | 10.12240 | 1775 ft | 168 kts | 238° |
| 2026-04-24 21:24 | 53.68881 | 10.10794 | 1630 ft | 148 kts | 240° |
| 2026-04-24 21:25 | 53.68258 | 10.09460 | 1496 ft | 142 kts | 239° |
| 2026-04-24 21:25 | 53.67644 | 10.08163 | 1311 ft | 141 kts | 240° |
| 2026-04-24 21:25 | 53.67024 | 10.06883 | 1121 ft | 141 kts | 237° |
| 2026-04-24 21:25 | 53.66388 | 10.05631 | 956 ft | 140 kts | 237° |
| 2026-04-24 21:26 | 53.65771 | 10.04364 | 767 ft | 139 kts | 237° |
| 2026-04-24 21:26 | 53.65163 | 10.03117 | 563 ft | 137 kts | 236° |
| 2026-04-24 21:26 | 53.64538 | 10.01869 | 384 ft | 137 kts | 236° |
| 2026-04-24 21:26 | 53.63942 | 10.00660 | 210 ft | 134 kts | 237° |
| 2026-04-24 21:27 | 53.63351 | 9.99461 | 51 ft | 126 kts | 233° |
| 2026-04-24 21:27 | 53.62929 | 9.98602 | 47 ft | 58 kts | 231° |
| 2026-04-24 21:27 | 53.62797 | 9.98354 | 46 ft | 11 kts | 210° |
| 2026-04-24 21:27 | 53.62743 | 9.98365 | 46 ft | 13 kts | 152° |
| 2026-04-24 21:28 | 53.62681 | 9.98507 | 49 ft | 12 kts | 83° |
| 2026-04-24 21:28 | 53.62723 | 9.98621 | 49 ft | 5 kts | 51° |